sensor_id;sensor_type;location;lat;lon;timestamp;P1;durP1;ratioP1;P2;durP2;ratioP2
59233;SDS011;60776;51.702;7.462;2023-07-31T00:00:01;2.00;;;1.80;;
59233;SDS011;60776;51.702;7.462;2023-07-31T00:02:28;2.60;;;2.40;;
59233;SDS011;60776;51.702;7.462;2023-07-31T00:04:53;2.45;;;2.00;;
59233;SDS011;60776;51.702;7.462;2023-07-31T00:07:19;2.05;;;1.85;;
59233;SDS011;60776;51.702;7.462;2023-07-31T00:09:44;3.25;;;2.83;;
59233;SDS011;60776;51.702;7.462;2023-07-31T00:12:13;3.28;;;2.33;;
59233;SDS011;60776;51.702;7.462;2023-07-31T00:14:38;2.95;;;2.47;;
59233;SDS011;60776;51.702;7.462;2023-07-31T00:17:04;3.72;;;2.40;;
59233;SDS011;60776;51.702;7.462;2023-07-31T00:19:32;2.70;;;2.33;;
59233;SDS011;60776;51.702;7.462;2023-07-31T00:22:01;1.92;;;1.83;;
59233;SDS011;60776;51.702;7.462;2023-07-31T00:24:27;2.95;;;2.65;;
59233;SDS011;60776;51.702;7.462;2023-07-31T00:26:55;1.98;;;1.80;;
59233;SDS011;60776;51.702;7.462;2023-07-31T00:29:23;2.60;;;2.40;;
59233;SDS011;60776;51.702;7.462;2023-07-31T00:31:48;1.80;;;1.67;;
59233;SDS011;60776;51.702;7.462;2023-07-31T00:34:14;3.72;;;2.65;;
59233;SDS011;60776;51.702;7.462;2023-07-31T00:36:40;3.28;;;2.42;;
59233;SDS011;60776;51.702;7.462;2023-07-31T00:39:07;2.38;;;2.17;;
59233;SDS011;60776;51.702;7.462;2023-07-31T00:41:33;3.28;;;2.30;;
59233;SDS011;60776;51.702;7.462;2023-07-31T00:43:59;2.00;;;1.60;;
59233;SDS011;60776;51.702;7.462;2023-07-31T00:46:25;2.35;;;2.15;;
59233;SDS011;60776;51.702;7.462;2023-07-31T00:48:53;1.98;;;1.85;;
59233;SDS011;60776;51.702;7.462;2023-07-31T00:51:21;2.78;;;2.00;;
59233;SDS011;60776;51.702;7.462;2023-07-31T00:53:47;1.67;;;1.58;;
59233;SDS011;60776;51.702;7.462;2023-07-31T00:56:13;3.03;;;2.30;;
59233;SDS011;60776;51.702;7.462;2023-07-31T00:58:39;4.50;;;1.60;;
59233;SDS011;60776;51.702;7.462;2023-07-31T01:01:05;4.57;;;2.67;;
59233;SDS011;60776;51.702;7.462;2023-07-31T01:03:34;2.05;;;1.70;;
59233;SDS011;60776;51.702;7.462;2023-07-31T01:06:06;4.40;;;2.28;;
59233;SDS011;60776;51.702;7.462;2023-07-31T01:08:42;4.47;;;2.15;;
59233;SDS011;60776;51.702;7.462;2023-07-31T01:11:27;3.70;;;2.13;;
59233;SDS011;60776;51.702;7.462;2023-07-31T01:13:58;3.22;;;1.77;;
59233;SDS011;60776;51.702;7.462;2023-07-31T01:16:27;3.10;;;2.10;;
59233;SDS011;60776;51.702;7.462;2023-07-31T01:18:53;6.72;;;2.72;;
59233;SDS011;60776;51.702;7.462;2023-07-31T01:24:00;6.03;;;4.10;;
59233;SDS011;60776;51.702;7.462;2023-07-31T01:26:36;9.20;;;6.45;;
59233;SDS011;60776;51.702;7.462;2023-07-31T01:29:11;10.75;;;7.53;;
59233;SDS011;60776;51.702;7.462;2023-07-31T01:31:48;13.27;;;10.02;;
59233;SDS011;60776;51.702;7.462;2023-07-31T01:34:16;18.75;;;12.02;;
59233;SDS011;60776;51.702;7.462;2023-07-31T01:36:43;19.13;;;11.15;;
59233;SDS011;60776;51.702;7.462;2023-07-31T01:39:09;21.70;;;14.00;;
59233;SDS011;60776;51.702;7.462;2023-07-31T01:41:35;19.90;;;13.70;;
59233;SDS011;60776;51.702;7.462;2023-07-31T01:44:00;20.65;;;13.13;;
59233;SDS011;60776;51.702;7.462;2023-07-31T01:46:28;19.33;;;12.38;;
59233;SDS011;60776;51.702;7.462;2023-07-31T01:48:57;23.88;;;14.85;;
59233;SDS011;60776;51.702;7.462;2023-07-31T01:51:22;16.27;;;12.70;;
59233;SDS011;60776;51.702;7.462;2023-07-31T01:53:48;18.20;;;11.57;;
59233;SDS011;60776;51.702;7.462;2023-07-31T01:56:14;19.85;;;11.45;;
59233;SDS011;60776;51.702;7.462;2023-07-31T01:58:39;19.15;;;9.43;;
59233;SDS011;60776;51.702;7.462;2023-07-31T02:01:05;17.25;;;10.07;;
59233;SDS011;60776;51.702;7.462;2023-07-31T02:03:31;16.42;;;9.15;;
59233;SDS011;60776;51.702;7.462;2023-07-31T02:05:59;21.40;;;8.68;;
59233;SDS011;60776;51.702;7.462;2023-07-31T02:08:25;17.00;;;9.38;;
59233;SDS011;60776;51.702;7.462;2023-07-31T02:10:53;16.65;;;8.43;;
59233;SDS011;60776;51.702;7.462;2023-07-31T02:13:19;16.10;;;8.38;;
59233;SDS011;60776;51.702;7.462;2023-07-31T02:15:45;14.43;;;8.55;;
59233;SDS011;60776;51.702;7.462;2023-07-31T02:18:10;16.23;;;8.38;;
59233;SDS011;60776;51.702;7.462;2023-07-31T02:20:36;16.58;;;8.15;;
59233;SDS011;60776;51.702;7.462;2023-07-31T02:23:02;21.88;;;8.45;;
59233;SDS011;60776;51.702;7.462;2023-07-31T02:25:28;16.40;;;7.93;;
59233;SDS011;60776;51.702;7.462;2023-07-31T02:27:53;14.05;;;8.00;;
59233;SDS011;60776;51.702;7.462;2023-07-31T02:30:19;17.17;;;7.53;;
59233;SDS011;60776;51.702;7.462;2023-07-31T02:32:44;13.27;;;7.43;;
59233;SDS011;60776;51.702;7.462;2023-07-31T02:35:10;15.55;;;7.72;;
59233;SDS011;60776;51.702;7.462;2023-07-31T02:37:40;13.30;;;7.07;;
59233;SDS011;60776;51.702;7.462;2023-07-31T02:40:06;16.55;;;6.80;;
59233;SDS011;60776;51.702;7.462;2023-07-31T02:42:32;11.13;;;6.50;;
59233;SDS011;60776;51.702;7.462;2023-07-31T02:44:58;13.07;;;5.97;;
59233;SDS011;60776;51.702;7.462;2023-07-31T02:47:23;13.95;;;6.88;;
59233;SDS011;60776;51.702;7.462;2023-07-31T02:49:49;17.15;;;7.20;;
59233;SDS011;60776;51.702;7.462;2023-07-31T02:52:17;10.63;;;6.13;;
59233;SDS011;60776;51.702;7.462;2023-07-31T02:54:45;16.70;;;7.38;;
59233;SDS011;60776;51.702;7.462;2023-07-31T02:57:11;12.95;;;7.05;;
59233;SDS011;60776;51.702;7.462;2023-07-31T02:59:39;11.35;;;5.93;;
59233;SDS011;60776;51.702;7.462;2023-07-31T03:02:05;15.35;;;5.85;;
59233;SDS011;60776;51.702;7.462;2023-07-31T03:04:30;13.65;;;6.05;;
59233;SDS011;60776;51.702;7.462;2023-07-31T03:06:58;13.98;;;5.95;;
59233;SDS011;60776;51.702;7.462;2023-07-31T03:09:24;16.55;;;6.20;;
59233;SDS011;60776;51.702;7.462;2023-07-31T03:11:50;13.48;;;6.68;;
59233;SDS011;60776;51.702;7.462;2023-07-31T03:14:15;16.23;;;6.15;;
59233;SDS011;60776;51.702;7.462;2023-07-31T03:16:41;12.90;;;6.53;;
59233;SDS011;60776;51.702;7.462;2023-07-31T03:19:07;11.93;;;5.85;;
59233;SDS011;60776;51.702;7.462;2023-07-31T03:21:32;12.90;;;6.68;;
59233;SDS011;60776;51.702;7.462;2023-07-31T03:23:58;12.27;;;5.95;;
59233;SDS011;60776;51.702;7.462;2023-07-31T03:26:24;11.75;;;6.38;;
59233;SDS011;60776;51.702;7.462;2023-07-31T03:28:52;15.55;;;6.95;;
59233;SDS011;60776;51.702;7.462;2023-07-31T03:31:17;13.45;;;6.70;;
59233;SDS011;60776;51.702;7.462;2023-07-31T03:33:43;16.15;;;6.45;;
59233;SDS011;60776;51.702;7.462;2023-07-31T03:36:11;11.95;;;5.28;;
59233;SDS011;60776;51.702;7.462;2023-07-31T03:38:37;9.35;;;5.40;;
59233;SDS011;60776;51.702;7.462;2023-07-31T03:41:05;13.02;;;6.53;;
59233;SDS011;60776;51.702;7.462;2023-07-31T03:43:33;13.88;;;6.05;;
59233;SDS011;60776;51.702;7.462;2023-07-31T03:46:02;11.43;;;6.05;;
59233;SDS011;60776;51.702;7.462;2023-07-31T03:48:28;13.50;;;6.10;;
59233;SDS011;60776;51.702;7.462;2023-07-31T03:50:54;14.73;;;6.22;;
59233;SDS011;60776;51.702;7.462;2023-07-31T03:53:20;8.70;;;5.47;;
59233;SDS011;60776;51.702;7.462;2023-07-31T03:55:46;13.65;;;6.43;;
59233;SDS011;60776;51.702;7.462;2023-07-31T03:58:13;10.05;;;5.55;;
59233;SDS011;60776;51.702;7.462;2023-07-31T04:00:40;12.10;;;5.88;;
59233;SDS011;60776;51.702;7.462;2023-07-31T04:03:05;11.18;;;5.90;;
59233;SDS011;60776;51.702;7.462;2023-07-31T04:05:31;12.80;;;5.95;;
59233;SDS011;60776;51.702;7.462;2023-07-31T04:07:57;13.20;;;6.22;;
59233;SDS011;60776;51.702;7.462;2023-07-31T04:10:23;15.68;;;6.10;;
59233;SDS011;60776;51.702;7.462;2023-07-31T04:12:49;10.32;;;5.45;;
59233;SDS011;60776;51.702;7.462;2023-07-31T04:15:14;12.05;;;6.30;;
59233;SDS011;60776;51.702;7.462;2023-07-31T04:17:40;8.23;;;5.45;;
59233;SDS011;60776;51.702;7.462;2023-07-31T04:20:07;11.35;;;5.22;;
59233;SDS011;60776;51.702;7.462;2023-07-31T04:22:33;10.95;;;5.32;;
59233;SDS011;60776;51.702;7.462;2023-07-31T04:24:59;11.38;;;5.80;;
59233;SDS011;60776;51.702;7.462;2023-07-31T04:27:24;9.25;;;4.88;;
59233;SDS011;60776;51.702;7.462;2023-07-31T04:29:50;10.75;;;5.97;;
59233;SDS011;60776;51.702;7.462;2023-07-31T04:32:16;12.15;;;6.18;;
59233;SDS011;60776;51.702;7.462;2023-07-31T04:34:42;10.60;;;5.85;;
59233;SDS011;60776;51.702;7.462;2023-07-31T04:37:08;11.38;;;5.45;;
59233;SDS011;60776;51.702;7.462;2023-07-31T04:39:36;9.73;;;5.22;;
59233;SDS011;60776;51.702;7.462;2023-07-31T04:42:01;9.48;;;4.85;;
59233;SDS011;60776;51.702;7.462;2023-07-31T04:44:27;12.05;;;6.07;;
59233;SDS011;60776;51.702;7.462;2023-07-31T04:46:53;11.93;;;6.15;;
59233;SDS011;60776;51.702;7.462;2023-07-31T04:49:19;13.32;;;5.30;;
59233;SDS011;60776;51.702;7.462;2023-07-31T04:51:44;9.43;;;5.53;;
59233;SDS011;60776;51.702;7.462;2023-07-31T04:54:10;13.25;;;5.65;;
59233;SDS011;60776;51.702;7.462;2023-07-31T04:56:37;10.30;;;5.78;;
59233;SDS011;60776;51.702;7.462;2023-07-31T04:59:03;9.20;;;5.90;;
59233;SDS011;60776;51.702;7.462;2023-07-31T05:01:29;10.35;;;5.95;;
59233;SDS011;60776;51.702;7.462;2023-07-31T05:03:54;8.30;;;5.75;;
59233;SDS011;60776;51.702;7.462;2023-07-31T05:06:20;9.25;;;5.63;;
59233;SDS011;60776;51.702;7.462;2023-07-31T05:08:52;9.73;;;5.07;;
59233;SDS011;60776;51.702;7.462;2023-07-31T05:11:17;8.93;;;5.10;;
59233;SDS011;60776;51.702;7.462;2023-07-31T05:13:43;8.18;;;4.57;;
59233;SDS011;60776;51.702;7.462;2023-07-31T05:16:08;8.48;;;4.70;;
59233;SDS011;60776;51.702;7.462;2023-07-31T05:18:36;15.02;;;5.40;;
59233;SDS011;60776;51.702;7.462;2023-07-31T05:21:02;9.73;;;5.18;;
59233;SDS011;60776;51.702;7.462;2023-07-31T05:23:31;9.00;;;4.95;;
59233;SDS011;60776;51.702;7.462;2023-07-31T05:26:04;12.30;;;5.05;;
59233;SDS011;60776;51.702;7.462;2023-07-31T05:28:30;8.63;;;4.55;;
59233;SDS011;60776;51.702;7.462;2023-07-31T05:31:00;9.30;;;4.90;;
59233;SDS011;60776;51.702;7.462;2023-07-31T05:33:26;11.15;;;5.65;;
59233;SDS011;60776;51.702;7.462;2023-07-31T05:35:51;9.82;;;4.95;;
59233;SDS011;60776;51.702;7.462;2023-07-31T05:38:17;7.63;;;4.80;;
59233;SDS011;60776;51.702;7.462;2023-07-31T05:40:43;14.00;;;4.88;;
59233;SDS011;60776;51.702;7.462;2023-07-31T05:43:08;7.75;;;4.97;;
59233;SDS011;60776;51.702;7.462;2023-07-31T05:45:34;9.63;;;5.30;;
59233;SDS011;60776;51.702;7.462;2023-07-31T05:48:01;10.32;;;5.40;;
59233;SDS011;60776;51.702;7.462;2023-07-31T05:50:27;7.88;;;4.97;;
59233;SDS011;60776;51.702;7.462;2023-07-31T05:52:53;10.50;;;5.03;;
59233;SDS011;60776;51.702;7.462;2023-07-31T05:55:18;10.07;;;5.47;;
59233;SDS011;60776;51.702;7.462;2023-07-31T05:57:44;9.68;;;4.88;;
59233;SDS011;60776;51.702;7.462;2023-07-31T06:00:11;8.77;;;5.45;;
59233;SDS011;60776;51.702;7.462;2023-07-31T06:02:37;9.57;;;5.13;;
59233;SDS011;60776;51.702;7.462;2023-07-31T06:05:03;11.18;;;4.95;;
59233;SDS011;60776;51.702;7.462;2023-07-31T06:07:31;8.80;;;5.47;;
59233;SDS011;60776;51.702;7.462;2023-07-31T06:09:57;9.55;;;5.50;;
59233;SDS011;60776;51.702;7.462;2023-07-31T06:12:28;11.00;;;6.05;;
59233;SDS011;60776;51.702;7.462;2023-07-31T06:14:54;9.90;;;6.07;;
59233;SDS011;60776;51.702;7.462;2023-07-31T06:17:20;11.52;;;6.22;;
59233;SDS011;60776;51.702;7.462;2023-07-31T06:19:46;10.50;;;6.03;;
59233;SDS011;60776;51.702;7.462;2023-07-31T06:22:12;13.73;;;6.10;;
59233;SDS011;60776;51.702;7.462;2023-07-31T06:24:37;7.10;;;5.70;;
59233;SDS011;60776;51.702;7.462;2023-07-31T06:27:03;9.60;;;6.45;;
59233;SDS011;60776;51.702;7.462;2023-07-31T06:29:30;6.07;;;4.90;;
59233;SDS011;60776;51.702;7.462;2023-07-31T06:31:56;10.43;;;6.22;;
59233;SDS011;60776;51.702;7.462;2023-07-31T06:34:21;9.48;;;5.28;;
59233;SDS011;60776;51.702;7.462;2023-07-31T06:36:47;7.82;;;5.10;;
59233;SDS011;60776;51.702;7.462;2023-07-31T06:39:13;7.25;;;5.47;;
59233;SDS011;60776;51.702;7.462;2023-07-31T06:41:38;7.40;;;5.05;;
59233;SDS011;60776;51.702;7.462;2023-07-31T06:44:04;8.25;;;5.57;;
59233;SDS011;60776;51.702;7.462;2023-07-31T06:46:30;7.90;;;5.35;;
59233;SDS011;60776;51.702;7.462;2023-07-31T06:48:55;9.07;;;5.95;;
59233;SDS011;60776;51.702;7.462;2023-07-31T06:51:21;9.13;;;6.40;;
59233;SDS011;60776;51.702;7.462;2023-07-31T06:53:47;9.05;;;5.75;;
59233;SDS011;60776;51.702;7.462;2023-07-31T06:56:12;7.50;;;5.18;;
59233;SDS011;60776;51.702;7.462;2023-07-31T06:58:40;8.73;;;5.57;;
59233;SDS011;60776;51.702;7.462;2023-07-31T07:01:06;14.88;;;6.65;;
59233;SDS011;60776;51.702;7.462;2023-07-31T07:03:32;9.68;;;5.68;;
59233;SDS011;60776;51.702;7.462;2023-07-31T07:05:57;12.25;;;5.93;;
59233;SDS011;60776;51.702;7.462;2023-07-31T07:08:23;13.27;;;6.75;;
59233;SDS011;60776;51.702;7.462;2023-07-31T07:10:49;7.88;;;5.57;;
59233;SDS011;60776;51.702;7.462;2023-07-31T07:13:15;12.07;;;6.68;;
59233;SDS011;60776;51.702;7.462;2023-07-31T07:15:41;10.50;;;6.35;;
59233;SDS011;60776;51.702;7.462;2023-07-31T07:18:06;13.30;;;7.90;;
59233;SDS011;60776;51.702;7.462;2023-07-31T07:20:32;11.85;;;7.78;;
59233;SDS011;60776;51.702;7.462;2023-07-31T07:23:00;10.90;;;7.38;;
59233;SDS011;60776;51.702;7.462;2023-07-31T07:25:26;11.38;;;7.13;;
59233;SDS011;60776;51.702;7.462;2023-07-31T07:27:51;14.75;;;8.20;;
59233;SDS011;60776;51.702;7.462;2023-07-31T07:30:17;12.13;;;7.07;;
59233;SDS011;60776;51.702;7.462;2023-07-31T07:32:43;11.85;;;7.30;;
59233;SDS011;60776;51.702;7.462;2023-07-31T07:35:08;14.18;;;7.35;;
59233;SDS011;60776;51.702;7.462;2023-07-31T07:37:34;10.70;;;6.72;;
59233;SDS011;60776;51.702;7.462;2023-07-31T07:40:00;11.07;;;7.65;;
59233;SDS011;60776;51.702;7.462;2023-07-31T07:42:25;9.73;;;7.15;;
59233;SDS011;60776;51.702;7.462;2023-07-31T07:44:51;8.95;;;6.00;;
59233;SDS011;60776;51.702;7.462;2023-07-31T07:47:16;7.88;;;5.63;;
59233;SDS011;60776;51.702;7.462;2023-07-31T07:49:42;8.40;;;6.28;;
59233;SDS011;60776;51.702;7.462;2023-07-31T07:52:08;9.27;;;6.57;;
59233;SDS011;60776;51.702;7.462;2023-07-31T07:54:33;9.75;;;6.22;;
59233;SDS011;60776;51.702;7.462;2023-07-31T07:57:02;8.25;;;5.53;;
59233;SDS011;60776;51.702;7.462;2023-07-31T07:59:28;10.25;;;5.10;;
59233;SDS011;60776;51.702;7.462;2023-07-31T08:01:53;5.50;;;4.35;;
59233;SDS011;60776;51.702;7.462;2023-07-31T08:04:19;7.80;;;5.50;;
59233;SDS011;60776;51.702;7.462;2023-07-31T08:06:45;11.43;;;6.30;;
59233;SDS011;60776;51.702;7.462;2023-07-31T08:09:13;8.93;;;6.40;;
59233;SDS011;60776;51.702;7.462;2023-07-31T08:11:38;9.45;;;5.82;;
59233;SDS011;60776;51.702;7.462;2023-07-31T08:14:04;6.40;;;5.45;;
59233;SDS011;60776;51.702;7.462;2023-07-31T08:16:30;10.05;;;5.93;;
59233;SDS011;60776;51.702;7.462;2023-07-31T08:18:55;9.18;;;5.78;;
59233;SDS011;60776;51.702;7.462;2023-07-31T08:21:21;6.55;;;4.53;;
59233;SDS011;60776;51.702;7.462;2023-07-31T08:23:50;6.88;;;5.20;;
59233;SDS011;60776;51.702;7.462;2023-07-31T08:26:16;6.93;;;4.97;;
59233;SDS011;60776;51.702;7.462;2023-07-31T08:28:43;5.88;;;4.30;;
59233;SDS011;60776;51.702;7.462;2023-07-31T08:31:08;6.38;;;5.05;;
59233;SDS011;60776;51.702;7.462;2023-07-31T08:33:34;8.30;;;5.40;;
59233;SDS011;60776;51.702;7.462;2023-07-31T08:36:00;7.85;;;5.30;;
59233;SDS011;60776;51.702;7.462;2023-07-31T08:38:26;11.30;;;4.40;;
59233;SDS011;60776;51.702;7.462;2023-07-31T08:40:52;8.05;;;4.60;;
59233;SDS011;60776;51.702;7.462;2023-07-31T08:43:19;6.03;;;4.47;;
59233;SDS011;60776;51.702;7.462;2023-07-31T08:45:49;8.05;;;4.15;;
59233;SDS011;60776;51.702;7.462;2023-07-31T08:48:16;6.72;;;3.75;;
59233;SDS011;60776;51.702;7.462;2023-07-31T08:50:43;5.30;;;3.50;;
59233;SDS011;60776;51.702;7.462;2023-07-31T08:53:08;4.05;;;3.08;;
59233;SDS011;60776;51.702;7.462;2023-07-31T08:55:35;4.28;;;3.28;;
59233;SDS011;60776;51.702;7.462;2023-07-31T08:58:02;3.97;;;3.38;;
59233;SDS011;60776;51.702;7.462;2023-07-31T09:00:29;5.32;;;3.60;;
59233;SDS011;60776;51.702;7.462;2023-07-31T09:03:01;5.90;;;3.35;;
59233;SDS011;60776;51.702;7.462;2023-07-31T09:05:29;5.00;;;3.20;;
59233;SDS011;60776;51.702;7.462;2023-07-31T09:07:58;4.75;;;3.00;;
59233;SDS011;60776;51.702;7.462;2023-07-31T09:10:27;5.30;;;3.30;;
59233;SDS011;60776;51.702;7.462;2023-07-31T09:12:52;4.28;;;2.60;;
59233;SDS011;60776;51.702;7.462;2023-07-31T09:15:18;5.13;;;2.75;;
59233;SDS011;60776;51.702;7.462;2023-07-31T09:17:44;6.57;;;3.30;;
59233;SDS011;60776;51.702;7.462;2023-07-31T09:20:19;4.47;;;3.10;;
59233;SDS011;60776;51.702;7.462;2023-07-31T09:22:46;4.22;;;2.95;;
59233;SDS011;60776;51.702;7.462;2023-07-31T09:28:25;4.10;;;2.88;;
59233;SDS011;60776;51.702;7.462;2023-07-31T09:30:43;4.70;;;2.90;;
59233;SDS011;60776;51.702;7.462;2023-07-31T09:33:13;4.35;;;2.75;;
59233;SDS011;60776;51.702;7.462;2023-07-31T09:35:39;4.88;;;3.10;;
59233;SDS011;60776;51.702;7.462;2023-07-31T09:38:07;4.78;;;3.33;;
59233;SDS011;60776;51.702;7.462;2023-07-31T09:40:46;4.97;;;3.08;;
59233;SDS011;60776;51.702;7.462;2023-07-31T09:43:22;3.53;;;2.90;;
59233;SDS011;60776;51.702;7.462;2023-07-31T09:45:52;3.15;;;2.83;;
59233;SDS011;60776;51.702;7.462;2023-07-31T09:48:20;2.90;;;2.30;;
59233;SDS011;60776;51.702;7.462;2023-07-31T09:50:48;2.95;;;2.38;;
59233;SDS011;60776;51.702;7.462;2023-07-31T09:53:15;3.58;;;2.50;;
59233;SDS011;60776;51.702;7.462;2023-07-31T09:55:41;3.22;;;2.45;;
59233;SDS011;60776;51.702;7.462;2023-07-31T09:58:10;4.32;;;2.65;;
59233;SDS011;60776;51.702;7.462;2023-07-31T10:00:39;2.60;;;2.20;;
59233;SDS011;60776;51.702;7.462;2023-07-31T10:03:09;3.97;;;2.35;;
59233;SDS011;60776;51.702;7.462;2023-07-31T10:05:50;2.00;;;1.75;;
59233;SDS011;60776;51.702;7.462;2023-07-31T10:08:20;3.40;;;2.10;;
59233;SDS011;60776;51.702;7.462;2023-07-31T10:10:48;3.38;;;2.05;;
59233;SDS011;60776;51.702;7.462;2023-07-31T10:13:14;2.95;;;1.65;;
59233;SDS011;60776;51.702;7.462;2023-07-31T10:15:41;2.10;;;1.90;;
59233;SDS011;60776;51.702;7.462;2023-07-31T10:18:08;2.60;;;2.10;;
59233;SDS011;60776;51.702;7.462;2023-07-31T10:20:35;1.88;;;1.77;;
59233;SDS011;60776;51.702;7.462;2023-07-31T10:23:01;4.00;;;1.98;;
59233;SDS011;60776;51.702;7.462;2023-07-31T10:25:35;2.10;;;1.70;;
59233;SDS011;60776;51.702;7.462;2023-07-31T10:28:02;2.08;;;1.60;;
59233;SDS011;60776;51.702;7.462;2023-07-31T10:30:30;2.08;;;1.90;;
59233;SDS011;60776;51.702;7.462;2023-07-31T10:32:58;2.67;;;1.90;;
59233;SDS011;60776;51.702;7.462;2023-07-31T10:35:27;2.20;;;2.00;;
59233;SDS011;60776;51.702;7.462;2023-07-31T10:37:53;2.63;;;1.63;;
59233;SDS011;60776;51.702;7.462;2023-07-31T10:40:19;2.35;;;2.15;;
59233;SDS011;60776;51.702;7.462;2023-07-31T10:43:08;2.22;;;1.85;;
59233;SDS011;60776;51.702;7.462;2023-07-31T10:45:37;2.45;;;2.05;;
59233;SDS011;60776;51.702;7.462;2023-07-31T10:48:13;1.50;;;1.40;;
59233;SDS011;60776;51.702;7.462;2023-07-31T10:50:47;2.88;;;2.15;;
59233;SDS011;60776;51.702;7.462;2023-07-31T10:53:24;2.60;;;1.83;;
59233;SDS011;60776;51.702;7.462;2023-07-31T10:56:07;2.08;;;1.88;;
59233;SDS011;60776;51.702;7.462;2023-07-31T10:58:44;3.15;;;1.92;;
59233;SDS011;60776;51.702;7.462;2023-07-31T11:01:16;1.95;;;1.77;;
59233;SDS011;60776;51.702;7.462;2023-07-31T11:03:46;2.08;;;1.70;;
59233;SDS011;60776;51.702;7.462;2023-07-31T11:06:16;1.88;;;1.50;;
59233;SDS011;60776;51.702;7.462;2023-07-31T11:08:43;2.40;;;1.90;;
59233;SDS011;60776;51.702;7.462;2023-07-31T11:11:11;1.60;;;1.50;;
59233;SDS011;60776;51.702;7.462;2023-07-31T11:13:43;2.45;;;2.15;;
59233;SDS011;60776;51.702;7.462;2023-07-31T11:16:15;2.55;;;2.35;;
59233;SDS011;60776;51.702;7.462;2023-07-31T11:18:43;2.65;;;2.45;;
59233;SDS011;60776;51.702;7.462;2023-07-31T11:21:13;3.55;;;3.25;;
59233;SDS011;60776;51.702;7.462;2023-07-31T11:23:40;4.53;;;3.60;;
59233;SDS011;60776;51.702;7.462;2023-07-31T11:26:06;4.93;;;4.13;;
59233;SDS011;60776;51.702;7.462;2023-07-31T11:28:33;4.72;;;4.32;;
59233;SDS011;60776;51.702;7.462;2023-07-31T11:30:59;4.88;;;4.47;;
59233;SDS011;60776;51.702;7.462;2023-07-31T11:33:28;5.93;;;4.95;;
59233;SDS011;60776;51.702;7.462;2023-07-31T11:35:54;5.15;;;4.63;;
59233;SDS011;60776;51.702;7.462;2023-07-31T11:38:29;6.10;;;5.50;;
59233;SDS011;60776;51.702;7.462;2023-07-31T11:40:57;6.53;;;5.10;;
59233;SDS011;60776;51.702;7.462;2023-07-31T11:43:24;6.20;;;5.43;;
59233;SDS011;60776;51.702;7.462;2023-07-31T11:45:52;6.05;;;5.40;;
59233;SDS011;60776;51.702;7.462;2023-07-31T11:48:26;6.53;;;5.05;;
59233;SDS011;60776;51.702;7.462;2023-07-31T11:50:54;8.00;;;5.25;;
59233;SDS011;60776;51.702;7.462;2023-07-31T11:53:25;6.60;;;5.43;;
59233;SDS011;60776;51.702;7.462;2023-07-31T11:55:55;5.68;;;5.18;;
59233;SDS011;60776;51.702;7.462;2023-07-31T11:58:24;7.03;;;4.88;;
59233;SDS011;60776;51.702;7.462;2023-07-31T12:00:50;5.47;;;4.53;;
59233;SDS011;60776;51.702;7.462;2023-07-31T12:03:16;6.03;;;4.43;;
59233;SDS011;60776;51.702;7.462;2023-07-31T12:05:43;6.15;;;4.25;;
59233;SDS011;60776;51.702;7.462;2023-07-31T12:08:10;6.18;;;4.32;;
59233;SDS011;60776;51.702;7.462;2023-07-31T12:10:40;6.00;;;4.53;;
59233;SDS011;60776;51.702;7.462;2023-07-31T12:13:19;4.50;;;4.10;;
59233;SDS011;60776;51.702;7.462;2023-07-31T12:15:48;4.70;;;3.90;;
59233;SDS011;60776;51.702;7.462;2023-07-31T12:18:19;6.95;;;3.72;;
59233;SDS011;60776;51.702;7.462;2023-07-31T12:20:46;5.55;;;3.55;;
59233;SDS011;60776;51.702;7.462;2023-07-31T12:23:19;4.75;;;3.42;;
59233;SDS011;60776;51.702;7.462;2023-07-31T12:28:56;4.18;;;3.05;;
59233;SDS011;60776;51.702;7.462;2023-07-31T12:31:22;4.28;;;3.13;;
59233;SDS011;60776;51.702;7.462;2023-07-31T12:33:52;3.90;;;3.47;;
59233;SDS011;60776;51.702;7.462;2023-07-31T12:36:20;3.67;;;3.30;;
59233;SDS011;60776;51.702;7.462;2023-07-31T12:38:46;5.03;;;3.10;;
59233;SDS011;60776;51.702;7.462;2023-07-31T12:41:12;3.78;;;3.40;;
59233;SDS011;60776;51.702;7.462;2023-07-31T12:43:41;3.22;;;2.92;;
59233;SDS011;60776;51.702;7.462;2023-07-31T12:46:09;6.55;;;3.15;;
59233;SDS011;60776;51.702;7.462;2023-07-31T12:48:35;3.53;;;3.10;;
59233;SDS011;60776;51.702;7.462;2023-07-31T12:51:02;4.60;;;3.63;;
59233;SDS011;60776;51.702;7.462;2023-07-31T12:53:28;3.85;;;3.35;;
59233;SDS011;60776;51.702;7.462;2023-07-31T12:55:54;3.75;;;3.45;;
59233;SDS011;60776;51.702;7.462;2023-07-31T12:58:20;5.20;;;3.35;;
59233;SDS011;60776;51.702;7.462;2023-07-31T13:00:46;4.22;;;3.78;;
59233;SDS011;60776;51.702;7.462;2023-07-31T13:03:11;4.45;;;3.80;;
59233;SDS011;60776;51.702;7.462;2023-07-31T13:05:37;3.60;;;3.30;;
59233;SDS011;60776;51.702;7.462;2023-07-31T13:08:05;3.72;;;3.28;;
59233;SDS011;60776;51.702;7.462;2023-07-31T13:10:31;4.55;;;3.38;;
59233;SDS011;60776;51.702;7.462;2023-07-31T13:12:57;3.20;;;2.90;;
59233;SDS011;60776;51.702;7.462;2023-07-31T13:15:23;3.38;;;3.08;;
59233;SDS011;60776;51.702;7.462;2023-07-31T13:17:48;3.50;;;2.60;;
59233;SDS011;60776;51.702;7.462;2023-07-31T13:20:14;3.65;;;2.90;;
59233;SDS011;60776;51.702;7.462;2023-07-31T13:22:40;3.53;;;2.83;;
59233;SDS011;60776;51.702;7.462;2023-07-31T13:25:06;3.97;;;2.97;;
59233;SDS011;60776;51.702;7.462;2023-07-31T13:27:32;3.42;;;2.63;;
59233;SDS011;60776;51.702;7.462;2023-07-31T13:29:57;3.20;;;2.60;;
59233;SDS011;60776;51.702;7.462;2023-07-31T13:32:23;3.58;;;2.78;;
59233;SDS011;60776;51.702;7.462;2023-07-31T13:34:49;2.60;;;2.40;;
59233;SDS011;60776;51.702;7.462;2023-07-31T13:37:15;5.40;;;2.65;;
59233;SDS011;60776;51.702;7.462;2023-07-31T13:39:41;2.85;;;2.20;;
59233;SDS011;60776;51.702;7.462;2023-07-31T13:42:07;2.85;;;2.30;;
59233;SDS011;60776;51.702;7.462;2023-07-31T13:44:40;3.72;;;2.38;;
59233;SDS011;60776;51.702;7.462;2023-07-31T13:47:06;2.85;;;2.65;;
59233;SDS011;60776;51.702;7.462;2023-07-31T13:49:33;3.33;;;2.60;;
59233;SDS011;60776;51.702;7.462;2023-07-31T13:52:00;4.18;;;2.50;;
59233;SDS011;60776;51.702;7.462;2023-07-31T13:54:26;2.67;;;2.47;;
59233;SDS011;60776;51.702;7.462;2023-07-31T13:56:52;3.70;;;2.05;;
59233;SDS011;60776;51.702;7.462;2023-07-31T13:59:18;3.15;;;1.90;;
59233;SDS011;60776;51.702;7.462;2023-07-31T14:01:44;2.50;;;2.30;;
59233;SDS011;60776;51.702;7.462;2023-07-31T14:04:10;4.18;;;2.60;;
59233;SDS011;60776;51.702;7.462;2023-07-31T14:06:36;3.63;;;3.00;;
59233;SDS011;60776;51.702;7.462;2023-07-31T14:09:02;3.33;;;3.03;;
59233;SDS011;60776;51.702;7.462;2023-07-31T14:11:28;4.00;;;3.42;;
59233;SDS011;60776;51.702;7.462;2023-07-31T14:13:55;5.40;;;3.70;;
59233;SDS011;60776;51.702;7.462;2023-07-31T14:16:21;4.03;;;3.00;;
59233;SDS011;60776;51.702;7.462;2023-07-31T14:18:47;3.25;;;2.95;;
59233;SDS011;60776;51.702;7.462;2023-07-31T14:21:13;4.10;;;2.92;;
59233;SDS011;60776;51.702;7.462;2023-07-31T14:23:39;2.97;;;2.60;;
59233;SDS011;60776;51.702;7.462;2023-07-31T14:26:05;3.70;;;2.45;;
59233;SDS011;60776;51.702;7.462;2023-07-31T14:28:31;4.50;;;2.38;;
59233;SDS011;60776;51.702;7.462;2023-07-31T14:30:57;2.30;;;2.10;;
59233;SDS011;60776;51.702;7.462;2023-07-31T14:33:23;3.50;;;2.40;;
59233;SDS011;60776;51.702;7.462;2023-07-31T14:35:51;3.22;;;2.72;;
59233;SDS011;60776;51.702;7.462;2023-07-31T14:38:17;3.13;;;1.88;;
59233;SDS011;60776;51.702;7.462;2023-07-31T14:40:43;4.63;;;2.65;;
59233;SDS011;60776;51.702;7.462;2023-07-31T14:43:09;3.00;;;2.53;;
59233;SDS011;60776;51.702;7.462;2023-07-31T14:45:34;3.35;;;2.47;;
59233;SDS011;60776;51.702;7.462;2023-07-31T14:48:00;4.60;;;2.50;;
59233;SDS011;60776;51.702;7.462;2023-07-31T14:50:26;3.03;;;2.72;;